Time;durP1;ratioP1;P1;durP2;ratioP2;P2;SDS_P1;SDS_P2;PMS_P1;PMS_P2;Temp;Humidity;BMP_temperature;BMP_pressure;BME280_temperature;BME280_humidity;BME280_pressure;Samples;Min_cycle;Max_cycle;Signal;HPM_P1;HPM_P2
2022/08/29 00:00:34;;;;;;;10.05;7.20;;;17.40;99.90;;;;;;5112874;28;20065;-75
2022/08/29 00:03:00;;;;;;;11.43;8.07;;;17.40;99.90;;;;;;5113031;28;20033;-79
2022/08/29 00:05:29;;;;;;;10.15;6.93;;;17.30;99.90;;;;;;5112855;28;20032;-75
2022/08/29 00:07:55;;;;;;;10.32;7.95;;;17.30;99.90;;;;;;5113290;28;20016;-75
2022/08/29 00:10:20;;;;;;;11.68;8.00;;;17.30;99.90;;;;;;5112682;28;20043;-76
2022/08/29 00:12:47;;;;;;;12.68;8.05;;;17.30;99.90;;;;;;5113237;28;20016;-80
2022/08/29 00:15:14;;;;;;;12.80;8.45;;;17.30;99.90;;;;;;5113931;28;20059;-75
2022/08/29 00:17:40;;;;;;;11.20;8.05;;;17.30;99.90;;;;;;5113040;28;20458;-75
2022/08/29 00:20:08;;;;;;;13.23;8.35;;;17.30;99.90;;;;;;5113713;28;20460;-79
2022/08/29 00:22:33;;;;;;;13.45;8.43;;;17.30;99.90;;;;;;5114094;28;20015;-76
2022/08/29 00:25:03;;;;;;;9.00;7.18;;;17.30;99.90;;;;;;5112404;28;20409;-79
2022/08/29 00:27:29;;;;;;;11.93;8.32;;;17.30;99.90;;;;;;5114061;28;20097;-75
2022/08/29 00:29:55;;;;;;;9.32;7.60;;;17.30;99.90;;;;;;5113745;28;20024;-79
2022/08/29 00:32:21;;;;;;;9.57;7.07;;;17.30;99.90;;;;;;5114037;28;20050;-79
2022/08/29 00:34:46;;;;;;;15.95;8.80;;;17.20;99.90;;;;;;5113636;28;20081;-79
2022/08/29 00:37:12;;;;;;;11.32;8.40;;;17.20;99.90;;;;;;5113909;28;20020;-76
2022/08/29 00:39:38;;;;;;;10.77;8.60;;;17.20;99.90;;;;;;5113590;28;20427;-79
2022/08/29 00:42:03;;;;;;;14.27;9.50;;;17.20;99.90;;;;;;5112607;28;20530;-79
2022/08/29 00:44:29;;;;;;;13.90;9.85;;;17.20;99.90;;;;;;5113302;28;20059;-75
2022/08/29 00:46:57;;;;;;;15.45;10.57;;;17.20;99.90;;;;;;5112423;28;20062;-76
2022/08/29 00:49:40;;;;;;;13.43;9.95;;;17.20;99.90;;;;;;5113478;28;20094;-80
2022/08/29 00:52:09;;;;;;;;;;;17.20;99.90;;;;;;5112926;28;20020;-75
2022/08/29 00:54:36;;;;;;;18.00;11.18;;;17.30;99.90;;;;;;5112098;28;20034;-79
2022/08/29 00:57:02;;;;;;;18.95;11.45;;;17.30;99.90;;;;;;5113570;28;20027;-81
2022/08/29 00:59:34;;;;;;;18.52;11.88;;;17.20;99.90;;;;;;5113481;28;20049;-79
2022/08/29 01:02:02;;;;;;;17.87;12.67;;;17.20;99.90;;;;;;5112154;28;20027;-79
2022/08/29 01:04:28;;;;;;;22.63;13.45;;;17.20;99.90;;;;;;5111903;28;20073;-79
2022/08/29 01:06:54;;;;;;;20.38;12.68;;;17.20;99.90;;;;;;5113537;28;20043;-80
2022/08/29 01:09:21;;;;;;;18.10;11.73;;;17.20;99.90;;;;;;5113369;28;20082;-75
2022/08/29 01:14:32;;;;;;;23.25;13.70;;;17.10;99.90;;;;;;5117751;28;20069;-80
2022/08/29 01:16:59;;;;;;;20.75;14.15;;;17.20;99.90;;;;;;5116560;28;20012;-79
2022/08/29 01:19:45;;;;;;;22.15;14.88;;;17.20;99.90;;;;;;5115879;28;20016;-79
2022/08/29 01:22:21;;;;;;;21.35;14.27;;;17.10;99.90;;;;;;5117727;28;20019;-79
2022/08/29 01:24:51;;;;;;;26.52;16.58;;;17.00;99.90;;;;;;5117303;27;20035;-75
2022/08/29 01:27:23;;;;;;;23.95;15.63;;;17.10;99.90;;;;;;5116184;28;20024;-74
2022/08/29 01:29:49;;;;;;;27.27;16.77;;;17.00;99.90;;;;;;5117048;28;20066;-79
2022/08/29 01:32:15;;;;;;;26.55;17.52;;;17.00;99.90;;;;;;5117366;27;20058;-74
2022/08/29 01:34:42;;;;;;;26.90;17.83;;;17.10;99.90;;;;;;5115918;28;20019;-79
2022/08/29 01:37:10;;;;;;;27.63;17.73;;;17.00;99.90;;;;;;5117297;28;20040;-75
2022/08/29 01:39:39;;;;;;;26.38;17.98;;;17.00;99.90;;;;;;5116959;28;20028;-79
2022/08/29 01:42:15;;;;;;;26.17;16.75;;;17.00;99.90;;;;;;5117155;28;20024;-75
2022/08/29 01:44:41;;;;;;;28.27;18.30;;;16.90;99.90;;;;;;5115522;28;20040;-75
2022/08/29 01:47:07;;;;;;;28.33;16.70;;;16.90;99.90;;;;;;5117216;28;20026;-76
2022/08/29 01:49:35;;;;;;;32.10;17.58;;;17.00;99.90;;;;;;5115598;28;20408;-75
2022/08/29 01:52:02;;;;;;;26.92;18.45;;;16.90;99.90;;;;;;5115892;28;20023;-80
2022/08/29 01:54:29;;;;;;;27.15;17.90;;;16.90;99.90;;;;;;5115513;28;20481;-80
2022/08/29 01:56:54;;;;;;;25.33;17.40;;;16.90;99.90;;;;;;5115632;28;20031;-75
2022/08/29 01:59:25;;;;;;;26.33;17.08;;;16.90;99.90;;;;;;5116730;28;20019;-80
2022/08/29 02:01:59;;;;;;;27.00;17.90;;;16.90;99.90;;;;;;5115554;28;20073;-79
2022/08/29 02:04:26;;;;;;;26.58;17.65;;;16.90;99.90;;;;;;5115110;28;20055;-80
2022/08/29 02:06:51;;;;;;;27.23;17.73;;;16.90;99.90;;;;;;5116738;27;20011;-75
2022/08/29 02:09:17;;;;;;;30.25;17.65;;;16.80;99.90;;;;;;5115260;28;20065;-80
2022/08/29 02:11:45;;;;;;;31.02;18.70;;;16.90;99.90;;;;;;5116698;28;20023;-80
2022/08/29 02:14:10;;;;;;;27.25;17.83;;;16.90;99.90;;;;;;5116280;28;20026;-75
2022/08/29 02:16:36;;;;;;;26.58;16.90;;;16.80;99.90;;;;;;5115340;28;20019;-80
2022/08/29 02:19:02;;;;;;;31.75;19.60;;;16.80;99.90;;;;;;5115971;28;20027;-75
2022/08/29 02:21:29;;;;;;;31.90;20.33;;;16.80;99.90;;;;;;5115884;28;20491;-75
2022/08/29 02:23:58;;;;;;;36.60;21.27;;;16.80;99.90;;;;;;5116301;28;20036;-80
2022/08/29 02:26:23;;;;;;;29.27;19.85;;;16.80;99.90;;;;;;5115930;28;20019;-80
2022/08/29 02:28:50;;;;;;;30.30;19.80;;;16.80;99.90;;;;;;5115080;28;20465;-80
2022/08/29 02:31:17;;;;;;;32.55;19.40;;;16.70;99.90;;;;;;5115903;28;20020;-80
2022/08/29 02:33:43;;;;;;;34.28;21.63;;;16.80;99.90;;;;;;5116217;28;20020;-75
2022/08/29 02:36:09;;;;;;;29.70;20.17;;;16.70;99.90;;;;;;5114578;28;20372;-76
2022/08/29 02:38:35;;;;;;;32.38;22.17;;;16.80;99.90;;;;;;5114831;28;20019;-80
2022/08/29 02:41:01;;;;;;;34.30;21.95;;;16.80;99.90;;;;;;5115812;28;20020;-75
2022/08/29 02:43:27;;;;;;;37.38;23.02;;;16.70;99.90;;;;;;5114749;28;20085;-80
2022/08/29 02:45:53;;;;;;;36.55;21.10;;;16.70;99.90;;;;;;5115820;28;20020;-75
2022/08/29 02:48:19;;;;;;;28.15;19.92;;;16.70;99.90;;;;;;5114592;28;20431;-75
2022/08/29 02:50:48;;;;;;;30.27;21.05;;;16.70;99.90;;;;;;5114311;28;20028;-80
2022/08/29 02:53:15;;;;;;;38.65;22.98;;;16.70;99.90;;;;;;5115954;28;20051;-80
2022/08/29 02:55:41;;;;;;;31.60;20.65;;;16.70;99.90;;;;;;5115445;28;20020;-76
2022/08/29 02:58:07;;;;;;;31.33;21.33;;;16.80;99.90;;;;;;5115838;28;20091;-79
2022/08/29 03:00:33;;;;;;;34.47;21.65;;;16.70;99.90;;;;;;5114167;28;20060;-80
2022/08/29 03:03:00;;;;;;;30.52;20.17;;;16.80;99.90;;;;;;5115588;28;20028;-80
2022/08/29 03:05:28;;;;;;;28.77;20.25;;;16.80;99.90;;;;;;5115403;28;20167;-80
2022/08/29 03:07:56;;;;;;;33.30;20.25;;;16.80;99.90;;;;;;5114223;28;20388;-80
2022/08/29 03:10:22;;;;;;;31.20;21.30;;;16.80;99.90;;;;;;5115256;28;20084;-75
2022/08/29 03:12:48;;;;;;;28.33;18.48;;;16.70;99.90;;;;;;5114194;28;20015;-80
2022/08/29 03:15:15;;;;;;;26.33;18.80;;;16.70;99.90;;;;;;5115070;28;20072;-76
2022/08/29 03:17:41;;;;;;;30.40;20.17;;;16.70;99.90;;;;;;5115424;28;20026;-76
2022/08/29 03:20:09;;;;;;;24.92;17.48;;;16.80;99.90;;;;;;5114998;28;20383;-76
2022/08/29 03:22:35;;;;;;;29.80;19.20;;;16.70;99.90;;;;;;5114100;28;20020;-76
2022/08/29 03:25:03;;;;;;;24.80;17.38;;;16.70;99.90;;;;;;5114877;28;20032;-76
2022/08/29 03:27:30;;;;;;;29.00;18.13;;;16.70;99.90;;;;;;5113988;28;20468;-75
2022/08/29 03:29:56;;;;;;;23.88;17.38;;;16.70;99.90;;;;;;5114890;28;20488;-76
2022/08/29 03:32:23;;;;;;;23.50;17.52;;;16.70;99.90;;;;;;5115188;28;20053;-75
2022/08/29 03:34:49;;;;;;;21.98;16.75;;;16.70;99.90;;;;;;5112438;28;20030;-75
2022/08/29 03:37:15;;;;;;;24.08;18.08;;;16.70;99.90;;;;;;5113849;28;20102;-76
2022/08/29 03:39:41;;;;;;;22.75;15.18;;;16.70;99.90;;;;;;5114433;28;20524;-81
2022/08/29 03:42:07;;;;;;;28.52;15.80;;;16.70;99.90;;;;;;5113615;28;20015;-81
2022/08/29 03:44:35;;;;;;;18.48;13.27;;;16.70;99.90;;;;;;5113075;28;20392;-75
2022/08/29 03:47:01;;;;;;;19.10;13.75;;;16.70;99.90;;;;;;5113594;28;20016;-76
2022/08/29 03:49:26;;;;;;;18.10;13.45;;;16.70;99.90;;;;;;5113118;28;20019;-75
2022/08/29 03:51:53;;;;;;;20.95;14.50;;;16.70;99.90;;;;;;5114672;28;20015;-81
2022/08/29 03:54:18;;;;;;;15.80;13.23;;;16.60;99.90;;;;;;5114243;28;20048;-76
2022/08/29 03:56:45;;;;;;;24.33;15.18;;;16.60;99.90;;;;;;5113323;28;20019;-76
2022/08/29 03:59:11;;;;;;;23.85;15.82;;;16.60;99.90;;;;;;5112776;28;20042;-75
2022/08/29 04:01:37;;;;;;;18.95;14.93;;;16.60;99.90;;;;;;5113216;28;20020;-80
2022/08/29 04:04:03;;;;;;;26.10;16.60;;;16.60;99.90;;;;;;5113736;28;20101;-81
2022/08/29 04:06:29;;;;;;;32.97;18.70;;;16.60;99.90;;;;;;5114648;28;20019;-75
2022/08/29 04:08:55;;;;;;;31.98;19.75;;;16.50;99.90;;;;;;5113063;28;20492;-76
2022/08/29 04:11:23;;;;;;;29.58;19.83;;;16.50;99.90;;;;;;5112803;28;20065;-75
2022/08/29 04:13:49;;;;;;;28.83;19.75;;;16.40;99.90;;;;;;5114326;28;20023;-75
2022/08/29 04:16:18;;;;;;;37.20;21.02;;;16.40;99.90;;;;;;5113987;28;20048;-79
2022/08/29 04:18:44;;;;;;;34.03;20.67;;;16.40;99.90;;;;;;5114161;28;20077;-75
2022/08/29 04:21:10;;;;;;;38.42;21.05;;;16.40;99.90;;;;;;5112574;28;20031;-76
2022/08/29 04:23:38;;;;;;;32.88;20.55;;;16.40;99.90;;;;;;5114356;28;20047;-82
2022/08/29 04:26:04;;;;;;;35.75;20.83;;;16.40;99.90;;;;;;5112428;28;20112;-78
2022/08/29 04:28:30;;;;;;;39.83;22.95;;;16.40;99.90;;;;;;5112769;28;20057;-75
2022/08/29 04:30:56;;;;;;;36.42;22.60;;;16.30;99.90;;;;;;5113653;28;20023;-80
2022/08/29 04:33:24;;;;;;;34.88;21.88;;;16.30;99.90;;;;;;5112655;28;20515;-81
2022/08/29 04:35:51;;;;;;;32.40;21.38;;;16.30;99.90;;;;;;5112317;28;20030;-78
2022/08/29 04:38:17;;;;;;;30.38;21.45;;;16.30;99.90;;;;;;5112598;28;20045;-83
2022/08/29 04:40:43;;;;;;;39.03;23.67;;;16.30;99.90;;;;;;5112160;28;20520;-82
2022/08/29 04:43:09;;;;;;;36.35;21.98;;;16.30;99.90;;;;;;5113791;28;20024;-83
2022/08/29 04:45:39;;;;;;;42.33;23.23;;;16.20;99.90;;;;;;5113144;28;20117;-83
2022/08/29 04:48:05;;;;;;;34.45;21.98;;;16.20;99.90;;;;;;5112481;28;20023;-82
2022/08/29 04:50:31;;;;;;;31.83;20.80;;;16.20;99.90;;;;;;5113633;28;20030;-78
2022/08/29 04:52:57;;;;;;;42.00;24.13;;;16.20;99.90;;;;;;5112610;28;20114;-76
2022/08/29 04:55:23;;;;;;;37.05;23.00;;;16.20;99.90;;;;;;5111929;28;20035;-76
2022/08/29 04:57:51;;;;;;;35.70;23.70;;;16.20;99.90;;;;;;5112342;28;20110;-80
2022/08/29 05:00:22;;;;;;;37.72;22.75;;;16.20;99.90;;;;;;5113755;28;20027;-76
2022/08/29 05:02:48;;;;;;;31.15;21.00;;;16.20;99.90;;;;;;5112169;28;20046;-76
2022/08/29 05:05:16;;;;;;;34.47;22.15;;;16.30;99.90;;;;;;5113315;28;20563;-77
2022/08/29 05:07:42;;;;;;;40.08;22.10;;;16.20;99.90;;;;;;5113718;28;20030;-80
2022/08/29 05:10:12;;;;;;;32.13;21.50;;;16.20;99.90;;;;;;5113186;28;20380;-75
2022/08/29 05:12:38;;;;;;;34.30;19.23;;;16.20;99.90;;;;;;5112395;28;20027;-80
2022/08/29 05:15:06;;;;;;;29.52;19.70;;;16.20;99.90;;;;;;5111835;28;20031;-80
2022/08/29 05:17:32;;;;;;;35.58;20.15;;;16.30;99.90;;;;;;5113459;28;20031;-81
2022/08/29 05:19:58;;;;;;;28.15;19.15;;;16.20;99.90;;;;;;5112897;28;20460;-76
2022/08/29 05:22:24;;;;;;;26.40;18.60;;;16.30;99.90;;;;;;5112107;28;20065;-77
2022/08/29 05:24:50;;;;;;;27.05;19.27;;;16.30;99.90;;;;;;5108618;28;20081;-76
2022/08/29 05:27:18;;;;;;;31.40;20.17;;;16.30;99.90;;;;;;5098722;28;20481;-82
2022/08/29 05:29:46;;;;;;;27.00;17.42;;;16.30;99.90;;;;;;5097707;28;20058;-77
2022/08/29 05:32:13;;;;;;;29.48;18.27;;;16.30;99.90;;;;;;5099001;28;20041;-76
2022/08/29 05:34:41;;;;;;;26.77;17.33;;;16.40;99.90;;;;;;5106418;28;20024;-77
2022/08/29 05:37:13;;;;;;;26.75;18.00;;;16.30;99.90;;;;;;5097721;28;20141;-82
2022/08/29 05:39:40;;;;;;;24.33;17.55;;;16.30;99.90;;;;;;5098065;28;20417;-82
2022/08/29 05:42:07;;;;;;;24.15;16.98;;;16.40;99.90;;;;;;5112168;28;20410;-83
2022/08/29 05:44:34;;;;;;;27.60;17.90;;;16.30;99.90;;;;;;5106759;28;20039;-82
2022/08/29 05:47:02;;;;;;;27.23;17.17;;;16.30;99.90;;;;;;5111044;28;20059;-82
2022/08/29 05:49:28;;;;;;;26.30;17.30;;;16.40;99.90;;;;;;5110863;28;20039;-83
2022/08/29 05:51:55;;;;;;;27.45;18.52;;;16.40;99.90;;;;;;5112550;28;20076;-81
2022/08/29 05:54:21;;;;;;;20.73;15.30;;;16.50;99.90;;;;;;5112215;28;20059;-82
2022/08/29 05:56:47;;;;;;;30.58;18.67;;;16.60;99.90;;;;;;5112262;28;20046;-83
2022/08/29 05:59:15;;;;;;;27.27;16.88;;;16.70;99.90;;;;;;5116123;28;20492;-77
2022/08/29 06:01:41;;;;;;;23.90;15.05;;;16.80;99.90;;;;;;5112758;28;20030;-78
2022/08/29 06:04:06;;;;;;;23.73;17.38;;;16.80;99.90;;;;;;5114707;28;20051;-83
2022/08/29 06:06:32;;;;;;;18.23;14.90;;;16.70;99.90;;;;;;5115714;28;20076;-77
2022/08/29 06:08:58;;;;;;;21.05;14.15;;;16.80;99.90;;;;;;5114929;28;20106;-77
2022/08/29 06:11:29;;;;;;;20.45;14.80;;;16.90;99.90;;;;;;5110313;28;20020;-77
2022/08/29 06:13:55;;;;;;;19.67;14.48;;;16.90;99.90;;;;;;5101350;28;20020;-77
2022/08/29 06:16:23;;;;;;;20.98;13.80;;;16.90;99.90;;;;;;5110683;28;20024;-76
2022/08/29 06:18:49;;;;;;;17.85;14.35;;;17.00;99.90;;;;;;5107195;28;20020;-83
2022/08/29 06:21:15;;;;;;;19.95;14.10;;;17.00;99.90;;;;;;5103992;28;20016;-82
2022/08/29 06:23:42;;;;;;;16.27;14.02;;;17.10;99.90;;;;;;5104125;28;20030;-83
2022/08/29 06:26:09;;;;;;;21.02;15.40;;;17.10;99.90;;;;;;5111137;28;20042;-82
2022/08/29 06:28:36;;;;;;;14.48;12.73;;;17.00;99.90;;;;;;5109634;28;20024;-82
2022/08/29 06:31:14;;;;;;;16.85;14.15;;;17.20;99.90;;;;;;5107078;27;20016;-82
2022/08/29 06:33:40;;;;;;;17.08;12.70;;;17.20;99.90;;;;;;5106319;28;20019;-82
2022/08/29 06:36:07;;;;;;;18.20;13.50;;;17.30;99.90;;;;;;5105870;28;20035;-83
2022/08/29 06:38:34;;;;;;;16.48;12.93;;;17.40;99.90;;;;;;5106874;28;20039;-83
2022/08/29 06:41:05;;;;;;;14.45;12.48;;;17.50;99.90;;;;;;5103529;28;20023;-77
2022/08/29 06:43:31;;;;;;;19.20;12.38;;;17.70;99.90;;;;;;5115711;28;20385;-78
2022/08/29 06:45:56;;;;;;;17.05;12.23;;;17.80;99.90;;;;;;5115380;28;20039;-82
2022/08/29 06:48:22;;;;;;;15.38;12.82;;;17.90;99.90;;;;;;5114544;28;20422;-77
2022/08/29 06:50:48;;;;;;;18.33;13.02;;;18.00;99.90;;;;;;5114996;28;20015;-82
2022/08/29 06:53:13;;;;;;;14.98;11.63;;;18.10;99.90;;;;;;5115462;28;20711;-81
2022/08/29 06:55:39;;;;;;;13.55;10.32;;;18.10;99.90;;;;;;5114729;28;20064;-83
2022/08/29 06:58:05;;;;;;;18.13;11.32;;;18.00;99.90;;;;;;5115037;28;20024;-81
2022/08/29 07:00:31;;;;;;;13.40;10.82;;;18.00;99.90;;;;;;5115291;28;20090;-77
2022/08/29 07:02:56;;;;;;;16.90;10.95;;;18.10;99.90;;;;;;5113507;28;20088;-78
2022/08/29 07:05:24;;;;;;;14.48;10.52;;;18.10;99.90;;;;;;5113543;28;20180;-77
2022/08/29 07:07:50;;;;;;;13.98;10.00;;;18.30;99.90;;;;;;5114837;28;20027;-81
2022/08/29 07:10:17;;;;;;;10.93;9.70;;;18.20;99.90;;;;;;5113423;28;20039;-81
2022/08/29 07:12:43;;;;;;;13.60;9.57;;;18.40;99.90;;;;;;5113284;28;20056;-82
2022/08/29 07:15:09;;;;;;;11.70;10.45;;;18.40;99.90;;;;;;5113499;28;20485;-82
2022/08/29 07:17:35;;;;;;;14.27;9.85;;;18.60;99.90;;;;;;5115018;28;20060;-82
2022/08/29 07:20:01;;;;;;;12.40;9.52;;;18.50;99.90;;;;;;5114261;28;20819;-82
2022/08/29 07:22:27;;;;;;;12.50;8.88;;;18.50;99.90;;;;;;5113445;28;20468;-82
2022/08/29 07:24:54;;;;;;;10.52;8.98;;;18.50;99.90;;;;;;5113259;28;20449;-82
2022/08/29 07:27:20;;;;;;;13.55;8.05;;;18.50;99.90;;;;;;5112637;28;20016;-82
2022/08/29 07:29:47;;;;;;;12.88;8.32;;;18.40;99.90;;;;;;5105658;28;20072;-81
2022/08/29 07:32:13;;;;;;;11.55;7.25;;;18.30;99.90;;;;;;5111583;28;20047;-82
2022/08/29 07:34:39;;;;;;;13.05;7.65;;;18.40;99.90;;;;;;5113889;28;20031;-81
2022/08/29 07:37:05;;;;;;;8.95;6.72;;;18.40;99.90;;;;;;5107737;28;20119;-81
2022/08/29 07:39:31;;;;;;;14.18;7.57;;;18.50;99.90;;;;;;5112259;28;20496;-82
2022/08/29 07:42:00;;;;;;;12.27;6.65;;;18.60;99.90;;;;;;5111800;28;20149;-81
2022/08/29 07:44:26;;;;;;;8.63;6.13;;;18.80;99.90;;;;;;5112645;28;20397;-82
2022/08/29 07:46:56;;;;;;;8.57;6.38;;;18.90;99.90;;;;;;5107633;28;20031;-81
2022/08/29 07:49:23;;;;;;;7.57;6.43;;;18.90;99.90;;;;;;5109495;28;20015;-82
2022/08/29 07:51:52;;;;;;;13.93;6.65;;;19.20;99.90;;;;;;5112496;28;20023;-83
2022/08/29 07:54:18;;;;;;;11.75;7.07;;;19.20;99.90;;;;;;5112237;28;20024;-82
2022/08/29 07:56:45;;;;;;;9.88;7.20;;;19.20;99.90;;;;;;5110997;28;20019;-82
2022/08/29 07:59:11;;;;;;;9.93;7.32;;;19.30;99.90;;;;;;5107339;28;20030;-81
2022/08/29 08:01:38;;;;;;;12.95;6.60;;;19.40;99.90;;;;;;5108075;28;20020;-81
2022/08/29 08:04:05;;;;;;;13.68;7.32;;;19.40;99.90;;;;;;5112253;28;20136;-82
2022/08/29 08:06:32;;;;;;;9.82;6.80;;;19.50;99.90;;;;;;5114255;28;20020;-82
2022/08/29 08:08:57;;;;;;;8.95;6.85;;;19.40;99.90;;;;;;5108124;28;20020;-82
2022/08/29 08:11:24;;;;;;;9.43;6.88;;;19.50;99.90;;;;;;5113607;28;20080;-80
2022/08/29 08:13:51;;;;;;;12.25;6.90;;;19.60;99.90;;;;;;5113882;28;20027;-83
2022/08/29 08:16:20;;;;;;;10.93;6.72;;;19.80;99.90;;;;;;5113721;28;20023;-82
2022/08/29 08:18:45;;;;;;;9.70;6.75;;;19.80;99.90;;;;;;5113698;28;20027;-81
2022/08/29 08:21:11;;;;;;;9.90;6.75;;;19.90;99.90;;;;;;5113162;28;20035;-79
2022/08/29 08:23:38;;;;;;;8.52;6.78;;;20.10;99.90;;;;;;5114095;28;20035;-79
2022/08/29 08:26:05;;;;;;;8.85;6.43;;;20.10;99.90;;;;;;5107436;28;20020;-80
2022/08/29 08:28:31;;;;;;;10.10;6.45;;;20.10;99.90;;;;;;5093349;28;20081;-81
2022/08/29 08:30:58;;;;;;;7.13;6.40;;;20.20;99.90;;;;;;5113794;28;20059;-81
2022/08/29 08:33:24;;;;;;;11.65;6.03;;;20.60;99.90;;;;;;5112769;28;20027;-81
2022/08/29 08:35:50;;;;;;;12.43;7.18;;;20.20;99.90;;;;;;5113611;28;20457;-80
2022/08/29 08:38:16;;;;;;;8.20;6.65;;;20.60;99.90;;;;;;5113352;28;20024;-81
2022/08/29 08:41:09;;;;;;;10.10;6.40;;;20.80;99.90;;;;;;5113467;28;20068;-80
2022/08/29 08:43:59;;;;;;;7.10;5.82;;;20.60;99.90;;;;;;5113415;28;20071;-78
2022/08/29 08:46:34;;;;;;;9.25;6.85;;;20.70;99.90;;;;;;5113280;28;20011;-81
2022/08/29 08:49:05;;;;;;;11.80;6.72;;;20.60;99.90;;;;;;5112412;28;20024;-81
2022/08/29 08:51:34;;;;;;;7.10;6.18;;;20.70;99.90;;;;;;5112839;28;20675;-77
2022/08/29 08:54:02;;;;;;;9.57;5.85;;;20.70;99.90;;;;;;5112810;28;20023;-78
2022/08/29 08:56:37;;;;;;;8.32;5.78;;;20.70;99.90;;;;;;5112857;28;20027;-81
2022/08/29 08:59:15;;;;;;;8.68;5.50;;;20.80;99.90;;;;;;5112807;28;20076;-78
2022/08/29 09:01:45;;;;;;;8.55;6.25;;;20.70;99.90;;;;;;5113057;28;20028;-81
2022/08/29 09:04:32;;;;;;;10.65;5.85;;;20.50;99.90;;;;;;5112829;28;20096;-77
2022/08/29 09:07:08;;;;;;;9.25;6.30;;;20.40;99.90;;;;;;5100098;28;20095;-81
2022/08/29 09:09:55;;;;;;;14.57;6.75;;;20.40;99.90;;;;;;5112707;28;20432;-82
2022/08/29 09:12:33;;;;;;;8.77;5.80;;;20.20;99.90;;;;;;5112329;28;20518;-83
2022/08/29 09:15:02;;;;;;;8.82;6.40;;;20.00;99.90;;;;;;5112533;28;20077;-78
2022/08/29 09:17:40;;;;;;;8.95;6.88;;;20.10;99.90;;;;;;5112827;28;20030;-78
2022/08/29 09:20:12;;;;;;;9.45;5.75;;;20.30;99.90;;;;;;5111636;28;20027;-81
2022/08/29 09:22:41;;;;;;;8.40;6.35;;;20.70;99.90;;;;;;5112872;28;20121;-81
2022/08/29 09:25:11;;;;;;;6.97;5.68;;;20.90;99.90;;;;;;5112990;28;20062;-81
2022/08/29 09:27:37;;;;;;;9.00;4.97;;;20.70;99.90;;;;;;5112180;28;20028;-81
2022/08/29 09:30:10;;;;;;;6.75;5.97;;;20.70;99.90;;;;;;5104216;28;20028;-80
2022/08/29 09:32:59;;;;;;;5.90;5.25;;;20.60;99.90;;;;;;5096270;28;20019;-81
2022/08/29 09:35:41;;;;;;;9.82;6.57;;;20.70;99.90;;;;;;5096449;28;20035;-80
2022/08/29 09:38:17;;;;;;;7.30;5.57;;;20.90;99.90;;;;;;5096762;28;20058;-80
2022/08/29 09:40:54;;;;;;;6.65;5.55;;;21.40;99.90;;;;;;5096404;28;20016;-80
2022/08/29 09:43:37;;;;;;;8.38;6.80;;;21.70;99.30;;;;;;5094657;28;20020;-81
2022/08/29 09:46:06;;;;;;;5.57;4.70;;;22.00;92.00;;;;;;5108738;27;20031;-81
2022/08/29 09:48:33;;;;;;;11.35;8.65;;;21.70;86.00;;;;;;5113703;28;20028;-79
2022/08/29 09:51:23;;;;;;;6.60;4.43;;;21.80;90.60;;;;;;5113801;28;20040;-80
2022/08/29 09:53:52;;;;;;;4.85;4.18;;;21.50;85.20;;;;;;5115573;28;20015;-79
2022/08/29 09:56:25;;;;;;;8.00;5.07;;;21.20;87.10;;;;;;5114584;27;20039;-79
2022/08/29 09:59:10;;;;;;;11.98;10.77;;;21.10;91.20;;;;;;5110840;28;20024;-79
2022/08/29 10:01:38;;;;;;;12.77;6.93;;;21.60;97.50;;;;;;5104590;28;20039;-79
2022/08/29 10:04:06;;;;;;;15.10;8.63;;;21.90;86.30;;;;;;5113361;28;20492;-79
2022/08/29 10:06:38;;;;;;;12.00;7.93;;;21.90;88.30;;;;;;5115013;27;20032;-79
2022/08/29 10:09:24;;;;;;;7.22;5.18;;;21.90;85.70;;;;;;5113788;28;20364;-79
2022/08/29 10:12:01;;;;;;;6.57;4.57;;;21.60;92.30;;;;;;5111295;28;20044;-78
2022/08/29 10:14:44;;;;;;;4.85;4.20;;;21.10;88.60;;;;;;5108478;28;20715;-79
2022/08/29 10:19:57;;;;;;;5.53;4.32;;;20.90;86.30;;;;;;5105686;27;19949;-79
2022/08/29 10:22:30;;;;;;;6.95;5.00;;;20.90;86.20;;;;;;5103387;28;20028;-79
2022/08/29 10:25:10;;;;;;;;;;;20.80;88.60;;;;;;5114638;28;20396;-79
2022/08/29 10:27:48;;;;;;;9.77;5.47;;;21.00;88.80;;;;;;5114562;28;19907;-79
2022/08/29 10:30:24;;;;;;;8.85;4.90;;;21.10;91.20;;;;;;5109486;28;20040;-80
2022/08/29 10:33:26;;;;;;;10.23;6.47;;;21.10;90.00;;;;;;5113935;28;20020;-79
2022/08/29 10:35:58;;;;;;;8.27;5.05;;;20.90;87.20;;;;;;5102691;28;20106;-82
2022/08/29 10:39:01;;;;;;;7.88;4.25;;;21.10;90.30;;;;;;5113254;28;20031;-82
2022/08/29 10:41:58;;;;;;;7.70;4.60;;;21.30;83.70;;;;;;5113659;28;20102;-81
2022/08/29 10:44:28;;;;;;;10.95;5.53;;;21.60;78.90;;;;;;5108381;28;20039;-78
2022/08/29 10:47:34;;;;;;;10.15;4.70;;;21.90;78.50;;;;;;5114779;27;20402;-81
2022/08/29 10:50:18;;;;;;;12.98;5.90;;;22.00;77.30;;;;;;5114785;28;20043;-79
2022/08/29 10:53:12;;;;;;;11.02;5.80;;;22.30;74.20;;;;;;5113481;28;20027;-82
2022/08/29 10:55:51;;;;;;;7.57;4.43;;;22.60;75.60;;;;;;5112690;28;20043;-78
2022/08/29 10:58:23;;;;;;;3.97;3.33;;;22.60;74.80;;;;;;5114227;28;20560;-78
2022/08/29 11:00:58;;;;;;;8.23;4.88;;;22.20;74.30;;;;;;5106406;27;20157;-78
2022/08/29 11:03:44;;;;;;;6.03;3.83;;;22.20;77.60;;;;;;5112654;28;20036;-82
2022/08/29 11:06:16;;;;;;;3.28;2.97;;;22.10;79.00;;;;;;5109516;28;20508;-78
2022/08/29 11:09:07;;;;;;;6.95;4.93;;;22.00;71.00;;;;;;5110746;28;20024;-82
2022/08/29 11:11:36;;;;;;;11.68;5.30;;;22.40;71.60;;;;;;5110168;27;20468;-78
2022/08/29 11:14:07;;;;;;;7.25;3.90;;;22.50;70.30;;;;;;5104879;28;20013;-78
2022/08/29 11:16:47;;;;;;;10.07;4.68;;;22.60;67.20;;;;;;5110839;27;20111;-78
2022/08/29 11:19:26;;;;;;;6.05;3.03;;;22.80;71.70;;;;;;5113795;28;20061;-79
2022/08/29 11:22:07;;;;;;;13.50;5.88;;;22.80;66.50;;;;;;5111192;27;20118;-79
2022/08/29 11:24:35;;;;;;;11.02;5.15;;;22.80;66.90;;;;;;5103973;28;20094;-77
2022/08/29 11:27:37;;;;;;;6.68;4.60;;;22.90;68.70;;;;;;5104317;27;20067;-79
2022/08/29 11:30:14;;;;;;;12.75;5.45;;;22.60;67.70;;;;;;5108116;27;20023;-79
2022/08/29 11:33:00;;;;;;;4.88;3.47;;;22.90;71.40;;;;;;5105154;27;20514;-79
2022/08/29 11:35:48;;;;;;;4.82;3.55;;;23.00;67.00;;;;;;5100757;28;20044;-79
2022/08/29 11:38:51;;;;;;;4.45;3.35;;;22.70;68.60;;;;;;5104908;28;20020;-78
2022/08/29 11:41:55;;;;;;;4.90;3.40;;;22.20;69.90;;;;;;5103240;27;20073;-78
2022/08/29 11:44:45;;;;;;;4.57;3.95;;;21.90;72.70;;;;;;5064478;28;20122;-79
2022/08/29 11:47:46;;;;;;;5.88;4.50;;;22.10;74.70;;;;;;5065079;28;20040;-78
2022/08/29 11:50:15;;;;;;;5.80;3.90;;;22.10;70.70;;;;;;5096001;28;20079;-78
2022/08/29 11:52:55;;;;;;;7.70;4.15;;;22.10;70.10;;;;;;5103891;27;20043;-78
2022/08/29 11:55:37;;;;;;;5.95;4.95;;;22.30;70.20;;;;;;5104465;28;20055;-77
2022/08/29 11:58:26;;;;;;;7.65;4.75;;;22.20;71.80;;;;;;5105807;28;20573;-82
2022/08/29 12:00:54;;;;;;;6.13;4.32;;;21.90;72.20;;;;;;5109366;28;20028;-77
2022/08/29 12:03:32;;;;;;;4.85;3.83;;;21.80;74.70;;;;;;5112555;28;20104;-79
2022/08/29 12:06:01;;;;;;;5.97;4.40;;;21.90;74.60;;;;;;5107170;28;20485;-78
2022/08/29 12:09:04;;;;;;;4.80;3.53;;;22.20;74.70;;;;;;5109639;28;20036;-82
2022/08/29 12:11:57;;;;;;;6.03;3.50;;;22.00;72.40;;;;;;5105959;28;20059;-79
2022/08/29 12:14:45;;;;;;;4.07;3.38;;;22.10;73.00;;;;;;5112094;28;20026;-80
2022/08/29 12:17:16;;;;;;;6.60;3.50;;;22.10;72.80;;;;;;5101638;28;20103;-80
2022/08/29 12:19:49;;;;;;;6.15;4.15;;;22.10;72.30;;;;;;5110023;28;20020;-78
2022/08/29 12:22:54;;;;;;;6.35;3.72;;;22.20;73.30;;;;;;5112580;28;20031;-81
2022/08/29 12:25:22;;;;;;;7.47;3.70;;;22.30;73.10;;;;;;5102550;28;20035;-82
2022/08/29 12:28:38;;;;;;;6.85;3.92;;;22.50;73.50;;;;;;5099288;28;20036;-79
2022/08/29 12:31:33;;;;;;;4.93;3.60;;;22.80;68.10;;;;;;5110597;28;20031;-82
2022/08/29 12:34:06;;;;;;;6.72;4.80;;;23.10;67.70;;;;;;5112662;28;20028;-79
2022/08/29 12:36:41;;;;;;;8.05;4.63;;;23.40;67.50;;;;;;5101954;28;20070;-82
2022/08/29 12:39:42;;;;;;;6.57;4.35;;;23.60;66.20;;;;;;5112383;28;20023;-78
2022/08/29 12:42:34;;;;;;;6.32;3.20;;;23.70;65.90;;;;;;5087741;28;20039;-79
2022/08/29 12:45:07;;;;;;;6.25;3.80;;;23.60;64.50;;;;;;5112065;28;20027;-82
2022/08/29 12:47:44;;;;;;;10.45;3.58;;;23.20;64.40;;;;;;5110678;28;20028;-82
2022/08/29 12:50:22;;;;;;;7.20;3.83;;;23.30;68.70;;;;;;5112504;28;20023;-79
2022/08/29 12:53:06;;;;;;;5.47;4.10;;;23.60;67.60;;;;;;5113455;28;20106;-82
2022/08/29 12:55:40;;;;;;;7.25;4.65;;;23.70;67.70;;;;;;5113466;28;20075;-82
2022/08/29 12:58:10;;;;;;;8.35;4.57;;;23.80;65.50;;;;;;5111925;28;20046;-80
2022/08/29 13:00:36;;;;;;;7.43;4.35;;;23.90;67.90;;;;;;5110695;28;20054;-79